Time;durP1;ratioP1;P1;durP2;ratioP2;P2;SDS_P1;SDS_P2;PMS_P1;PMS_P2;Temp;Humidity;BMP_temperature;BMP_pressure;BME280_temperature;BME280_humidity;BME280_pressure;Samples;Min_cycle;Max_cycle;Signal;HPM_P1;HPM_P2
2023/03/12 00:02:01;;;;;;;7.78;3.83;;;0.50;79.60;;;;;;4999822;28;20100;-63
2023/03/12 00:04:35;;;;;;;9.68;4.53;;;0.50;79.60;;;;;;5002212;28;20046;-60
2023/03/12 00:07:10;;;;;;;12.02;4.97;;;0.50;79.50;;;;;;5003611;28;20143;-62
2023/03/12 00:09:44;;;;;;;11.63;4.90;;;0.50;79.40;;;;;;5019151;28;20133;-62
2023/03/12 00:12:18;;;;;;;10.13;4.68;;;0.50;79.30;;;;;;5004478;28;20077;-61
2023/03/12 00:14:51;;;;;;;9.45;4.72;;;0.50;79.20;;;;;;5002034;28;20045;-61
2023/03/12 00:17:24;;;;;;;9.32;4.30;;;0.50;79.30;;;;;;5003560;28;20137;-61
2023/03/12 00:19:57;;;;;;;8.48;3.70;;;0.50;79.40;;;;;;5004153;28;20045;-61
2023/03/12 00:22:31;;;;;;;7.57;3.55;;;0.40;79.60;;;;;;5008484;28;20053;-62
2023/03/12 00:25:07;;;;;;;7.45;3.42;;;0.40;79.50;;;;;;5008469;28;20049;-62
2023/03/12 00:27:40;;;;;;;7.57;3.58;;;0.40;79.50;;;;;;5008748;28;20073;-72
2023/03/12 00:30:14;;;;;;;6.70;3.25;;;0.40;79.50;;;;;;5004907;28;20042;-71
2023/03/12 00:32:48;;;;;;;8.02;3.25;;;0.40;79.60;;;;;;5006670;28;20089;-72
2023/03/12 00:35:21;;;;;;;6.38;3.10;;;0.30;79.60;;;;;;5004815;28;20049;-70
2023/03/12 00:37:55;;;;;;;7.63;3.13;;;0.30;79.60;;;;;;5006740;28;20054;-61
2023/03/12 00:40:29;;;;;;;8.73;2.72;;;0.30;79.90;;;;;;5007274;28;20080;-62
2023/03/12 00:43:02;;;;;;;7.38;3.00;;;0.30;79.80;;;;;;5001778;28;20062;-61
2023/03/12 00:45:35;;;;;;;9.88;3.83;;;0.40;79.80;;;;;;5022686;28;20044;-62
2023/03/12 00:48:16;;;;;;;8.93;3.20;;;0.30;80.40;;;;;;5006557;28;20042;-62
2023/03/12 00:50:49;;;;;;;9.40;3.50;;;0.30;80.50;;;;;;5009228;28;20046;-68
2023/03/12 00:53:23;;;;;;;9.85;3.60;;;0.20;80.50;;;;;;5009943;28;20042;-67
2023/03/12 00:55:57;;;;;;;8.05;2.90;;;0.30;80.50;;;;;;5021145;28;20042;-68
2023/03/12 00:58:32;;;;;;;9.43;3.50;;;0.30;80.50;;;;;;5007376;28;20052;-66
2023/03/12 01:01:05;;;;;;;8.98;3.80;;;0.20;81.00;;;;;;5009407;28;20069;-67
2023/03/12 01:03:39;;;;;;;5.93;2.88;;;0.30;81.10;;;;;;5007134;28;20397;-67
2023/03/12 01:06:12;;;;;;;6.45;3.05;;;0.30;81.20;;;;;;5008318;28;20058;-70
2023/03/12 01:08:46;;;;;;;7.13;3.38;;;0.30;81.30;;;;;;5008589;28;20512;-70
2023/03/12 01:11:22;;;;;;;8.70;3.42;;;0.30;81.30;;;;;;5020260;28;20062;-65
2023/03/12 01:13:56;;;;;;;7.85;3.35;;;0.30;81.50;;;;;;5003298;28;20153;-65
2023/03/12 01:16:30;;;;;;;6.43;2.85;;;0.40;81.60;;;;;;5008138;28;20050;-65
2023/03/12 01:19:04;;;;;;;9.02;3.65;;;0.30;81.50;;;;;;5007266;28;20049;-68
2023/03/12 01:21:39;;;;;;;7.97;3.25;;;0.40;81.40;;;;;;5007683;28;20118;-66
2023/03/12 01:24:14;;;;;;;8.45;3.50;;;0.40;81.30;;;;;;5008024;28;20050;-67
2023/03/12 01:26:47;;;;;;;6.32;3.15;;;0.40;81.20;;;;;;5007204;28;20133;-61
2023/03/12 01:29:20;;;;;;;6.95;3.42;;;0.40;81.20;;;;;;5006611;28;20056;-61
2023/03/12 01:31:53;;;;;;;7.60;3.30;;;0.40;81.20;;;;;;5003104;28;20081;-63
2023/03/12 01:34:26;;;;;;;8.07;2.90;;;0.50;81.30;;;;;;5004949;28;20378;-62
2023/03/12 01:37:00;;;;;;;7.18;2.85;;;0.40;81.30;;;;;;5005977;28;20489;-72
2023/03/12 01:39:35;;;;;;;9.20;3.83;;;0.40;81.40;;;;;;4999602;28;20056;-71
2023/03/12 01:42:08;;;;;;;6.32;2.70;;;0.50;81.60;;;;;;5006975;28;20041;-63
2023/03/12 01:44:54;;;;;;;7.68;3.10;;;0.50;81.60;;;;;;5006164;28;20057;-62
2023/03/12 01:47:31;;;;;;;5.65;2.55;;;0.50;81.50;;;;;;5021052;28;20054;-65
2023/03/12 01:50:15;;;;;;;6.65;3.13;;;0.50;81.60;;;;;;5002411;28;20072;-65
2023/03/12 01:52:49;;;;;;;6.13;2.53;;;0.50;81.70;;;;;;5002309;28;20131;-71
2023/03/12 01:55:25;;;;;;;7.97;3.03;;;0.50;81.60;;;;;;5005296;28;20084;-71
2023/03/12 01:58:01;;;;;;;7.15;3.20;;;0.40;81.80;;;;;;5018950;28;20123;-70
2023/03/12 02:00:34;;;;;;;8.20;3.28;;;0.50;81.80;;;;;;5004619;28;20386;-71
2023/03/12 02:03:09;;;;;;;7.43;3.15;;;0.50;81.80;;;;;;5021947;28;20137;-71
2023/03/12 02:05:51;;;;;;;5.95;3.15;;;0.40;81.90;;;;;;4987479;28;20073;-62
2023/03/12 02:08:24;;;;;;;;;;;0.40;81.80;;;;;;5021555;28;20046;-62
2023/03/12 02:10:59;;;;;;;8.60;3.17;;;0.50;81.70;;;;;;5020241;28;20016;-71
2023/03/12 02:13:32;;;;;;;6.53;2.83;;;0.50;81.50;;;;;;5002089;28;20081;-69
2023/03/12 02:16:07;;;;;;;7.38;3.17;;;0.50;81.50;;;;;;5019646;28;20046;-62
2023/03/12 02:18:40;;;;;;;7.22;3.20;;;0.50;81.40;;;;;;5003922;28;20049;-62
2023/03/12 02:21:19;;;;;;;6.60;2.90;;;0.50;81.40;;;;;;5005077;28;20046;-60
2023/03/12 02:24:01;;;;;;;7.07;3.63;;;0.50;81.50;;;;;;5005278;28;20521;-60
2023/03/12 02:26:38;;;;;;;9.75;4.07;;;0.50;81.50;;;;;;5005553;28;20135;-62
2023/03/12 02:29:12;;;;;;;6.57;3.05;;;0.50;81.60;;;;;;5014658;28;20497;-62
2023/03/12 02:31:51;;;;;;;6.82;3.03;;;0.50;81.90;;;;;;5020165;28;20038;-60
2023/03/12 02:34:25;;;;;;;10.02;3.53;;;0.40;82.00;;;;;;5003625;28;20066;-63
2023/03/12 02:36:52;;;;;;;6.97;3.42;;;0.40;82.20;;;;;;5003152;28;20054;-64
2023/03/12 02:39:26;;;;;;;9.57;3.42;;;0.50;82.20;;;;;;5000600;28;20037;-63
2023/03/12 02:42:02;;;;;;;8.13;3.45;;;0.50;82.40;;;;;;5020714;28;21198;-64
2023/03/12 02:44:36;;;;;;;7.57;3.08;;;0.50;82.40;;;;;;5002484;28;20501;-65
2023/03/12 02:47:10;;;;;;;7.93;3.20;;;0.50;82.50;;;;;;5021853;28;20081;-62
2023/03/12 02:49:50;;;;;;;6.03;3.42;;;0.40;82.50;;;;;;5005091;28;20511;-63
2023/03/12 02:52:23;;;;;;;9.13;4.10;;;0.40;82.50;;;;;;5021245;28;20050;-63
2023/03/12 02:54:56;;;;;;;7.03;3.30;;;0.40;82.50;;;;;;5018923;28;20072;-63
2023/03/12 02:57:30;;;;;;;6.00;3.22;;;0.50;82.30;;;;;;5020775;28;20489;-66
2023/03/12 03:00:10;;;;;;;6.20;3.20;;;0.50;82.30;;;;;;5020208;28;20046;-66
2023/03/12 03:02:48;;;;;;;7.45;3.20;;;0.50;82.20;;;;;;5006380;28;20049;-62
2023/03/12 03:05:22;;;;;;;6.93;3.15;;;0.50;82.10;;;;;;5020874;28;20049;-62
2023/03/12 03:07:55;;;;;;;6.80;3.40;;;0.50;82.00;;;;;;5006418;28;20064;-70
2023/03/12 03:10:28;;;;;;;8.38;3.25;;;0.50;82.00;;;;;;5019781;28;20049;-71
2023/03/12 03:13:03;;;;;;;6.05;3.38;;;0.40;81.90;;;;;;5005530;28;20056;-71
2023/03/12 03:15:37;;;;;;;5.55;2.60;;;0.50;81.90;;;;;;5004319;28;20125;-71
2023/03/12 03:18:10;;;;;;;7.75;2.95;;;0.50;81.90;;;;;;5004640;28;20685;-71
2023/03/12 03:20:43;;;;;;;7.68;3.55;;;0.40;82.30;;;;;;5004693;28;20053;-63
2023/03/12 03:23:17;;;;;;;8.05;3.85;;;0.40;82.40;;;;;;5006835;28;20049;-63
2023/03/12 03:25:51;;;;;;;9.65;3.50;;;0.40;82.50;;;;;;5005548;28;20107;-72
2023/03/12 03:28:27;;;;;;;8.25;3.38;;;0.40;82.50;;;;;;5006227;28;20046;-71
2023/03/12 03:31:01;;;;;;;8.55;3.70;;;0.40;82.40;;;;;;5003804;28;20116;-72
2023/03/12 03:33:38;;;;;;;9.77;3.67;;;0.50;82.50;;;;;;5003106;28;20048;-70
2023/03/12 03:36:13;;;;;;;6.35;3.50;;;0.50;82.40;;;;;;5005121;28;20469;-61
2023/03/12 03:38:55;;;;;;;6.68;2.95;;;0.40;82.50;;;;;;5017832;28;20111;-60
2023/03/12 03:41:31;;;;;;;7.55;3.20;;;0.50;82.40;;;;;;5017759;28;20978;-70
2023/03/12 03:44:00;;;;;;;7.93;4.38;;;0.40;82.60;;;;;;5019321;28;20061;-73
2023/03/12 03:46:35;;;;;;;7.40;3.30;;;0.40;82.70;;;;;;5003533;28;20058;-72
2023/03/12 03:49:17;;;;;;;7.35;3.58;;;0.40;83.00;;;;;;5004412;28;20382;-71
2023/03/12 03:51:52;;;;;;;5.85;3.15;;;0.40;83.00;;;;;;5003277;28;20163;-65
2023/03/12 03:54:32;;;;;;;7.72;3.63;;;0.30;83.10;;;;;;5002658;28;20112;-65
2023/03/12 03:57:13;;;;;;;7.43;3.10;;;0.40;83.00;;;;;;5004168;28;20046;-64
2023/03/12 03:59:49;;;;;;;8.55;4.18;;;0.40;82.80;;;;;;5001850;28;20053;-65
2023/03/12 04:02:22;;;;;;;6.63;3.53;;;0.40;82.80;;;;;;5020387;28;20050;-71
2023/03/12 04:04:57;;;;;;;7.28;3.75;;;0.40;82.80;;;;;;5006655;28;20042;-71
2023/03/12 04:07:31;;;;;;;7.13;3.25;;;0.40;82.60;;;;;;5006784;28;20099;-72
2023/03/12 04:10:06;;;;;;;8.85;3.97;;;0.50;82.30;;;;;;5023248;28;20061;-71
2023/03/12 04:12:41;;;;;;;7.50;3.38;;;0.60;82.10;;;;;;5007078;28;20506;-72
2023/03/12 04:15:16;;;;;;;7.82;3.72;;;0.60;82.10;;;;;;5007441;28;20069;-71
2023/03/12 04:17:50;;;;;;;8.88;3.65;;;0.60;82.20;;;;;;5021934;28;20397;-65
2023/03/12 04:20:26;;;;;;;7.10;3.88;;;0.70;82.10;;;;;;5006093;28;20045;-65
2023/03/12 04:23:00;;;;;;;7.43;3.85;;;0.60;82.30;;;;;;5004999;28;20169;-65
2023/03/12 04:25:33;;;;;;;8.00;4.18;;;0.50;82.40;;;;;;5005824;28;20529;-65
2023/03/12 04:28:07;;;;;;;9.10;3.85;;;0.50;82.80;;;;;;5006466;28;20538;-65
2023/03/12 04:30:42;;;;;;;8.75;3.70;;;0.50;82.90;;;;;;5022611;28;20421;-64
2023/03/12 04:33:15;;;;;;;7.15;3.70;;;0.50;82.70;;;;;;5004132;28;20053;-65
2023/03/12 04:35:51;;;;;;;6.45;3.45;;;0.50;82.70;;;;;;5006038;28;20046;-71
2023/03/12 04:38:26;;;;;;;7.00;3.55;;;0.50;82.60;;;;;;5008438;28;20112;-71
2023/03/12 04:41:00;;;;;;;7.18;3.42;;;0.50;82.50;;;;;;5001789;28;20042;-63
2023/03/12 04:43:35;;;;;;;7.32;3.78;;;0.50;82.90;;;;;;5019732;28;20069;-62
2023/03/12 04:46:10;;;;;;;8.02;3.30;;;0.50;82.90;;;;;;5005059;28;20128;-62
2023/03/12 04:48:44;;;;;;;9.00;3.80;;;0.50;82.90;;;;;;5004375;28;20396;-60
2023/03/12 04:51:18;;;;;;;8.38;3.67;;;0.60;82.80;;;;;;5023095;28;20534;-61
2023/03/12 04:53:51;;;;;;;10.23;4.10;;;0.50;83.10;;;;;;5008084;28;20458;-61
2023/03/12 04:56:26;;;;;;;9.18;3.60;;;0.50;83.30;;;;;;5022061;28;20048;-64
2023/03/12 04:59:00;;;;;;;8.13;3.50;;;0.50;83.10;;;;;;5007022;28;20053;-61
2023/03/12 05:01:37;;;;;;;8.20;3.83;;;0.50;83.10;;;;;;5006994;28;20053;-61
2023/03/12 05:04:17;;;;;;;7.43;3.30;;;0.50;83.00;;;;;;4990743;28;20508;-61
2023/03/12 05:06:52;;;;;;;7.82;3.72;;;0.60;83.00;;;;;;5005796;28;20058;-62
2023/03/12 05:09:25;;;;;;;6.03;3.42;;;0.60;83.10;;;;;;5009201;28;20062;-63
2023/03/12 05:11:58;;;;;;;6.60;3.40;;;0.60;83.00;;;;;;5007323;28;20053;-62
2023/03/12 05:14:32;;;;;;;9.55;4.00;;;0.60;83.10;;;;;;5007065;28;20410;-60
2023/03/12 05:17:09;;;;;;;10.05;4.15;;;0.50;83.10;;;;;;4990175;28;20041;-62
2023/03/12 05:19:42;;;;;;;9.73;3.75;;;0.60;83.00;;;;;;5008939;28;20050;-62
2023/03/12 05:22:17;;;;;;;7.95;3.30;;;0.50;83.00;;;;;;5023231;28;20053;-62
2023/03/12 05:24:50;;;;;;;9.02;3.22;;;0.50;83.10;;;;;;5022341;28;20052;-61
2023/03/12 05:27:24;;;;;;;6.93;3.45;;;0.60;83.20;;;;;;5021943;28;20141;-63
2023/03/12 05:29:59;;;;;;;8.35;3.28;;;0.60;83.10;;;;;;5006128;28;21303;-64
2023/03/12 05:32:34;;;;;;;9.30;3.70;;;0.60;83.10;;;;;;5022403;28;20457;-65
2023/03/12 05:35:08;;;;;;;6.05;2.95;;;0.60;83.20;;;;;;5022189;28;20052;-67
2023/03/12 05:37:43;;;;;;;8.90;3.70;;;0.60;83.20;;;;;;5022838;28;20556;-65
2023/03/12 05:40:17;;;;;;;7.72;3.20;;;0.60;83.20;;;;;;5003800;28;20042;-65
2023/03/12 05:42:52;;;;;;;8.70;3.10;;;0.60;83.40;;;;;;5003793;28;20041;-64
2023/03/12 05:45:26;;;;;;;6.10;3.38;;;0.60;83.50;;;;;;5018729;28;20092;-66
2023/03/12 05:48:01;;;;;;;5.95;2.90;;;0.60;83.60;;;;;;5009910;28;20045;-65
2023/03/12 05:50:42;;;;;;;8.35;3.03;;;0.50;83.60;;;;;;5025694;28;20048;-64
2023/03/12 05:53:15;;;;;;;7.63;3.40;;;0.60;83.50;;;;;;5026225;28;20056;-64
2023/03/12 05:55:49;;;;;;;8.57;3.03;;;0.60;83.50;;;;;;5024861;28;20526;-64
2023/03/12 05:58:23;;;;;;;7.05;3.40;;;0.60;83.60;;;;;;5028018;28;20053;-64
2023/03/12 06:00:56;;;;;;;6.63;3.30;;;0.70;83.30;;;;;;5007146;28;20115;-65
2023/03/12 06:03:32;;;;;;;6.95;3.20;;;0.70;83.10;;;;;;5025503;28;20049;-65
2023/03/12 06:06:05;;;;;;;6.72;3.28;;;0.70;83.20;;;;;;5026069;28;20064;-71
2023/03/12 06:08:41;;;;;;;8.88;3.70;;;0.70;83.40;;;;;;5008089;28;20041;-72
2023/03/12 06:11:14;;;;;;;6.05;3.53;;;0.70;83.10;;;;;;5025337;28;20049;-71
2023/03/12 06:13:48;;;;;;;9.63;3.72;;;0.70;83.30;;;;;;5009367;28;20485;-70
2023/03/12 06:16:23;;;;;;;7.53;3.45;;;0.70;83.20;;;;;;5025462;28;20088;-64
2023/03/12 06:19:00;;;;;;;8.35;3.05;;;0.80;83.00;;;;;;5007622;28;20060;-64
2023/03/12 06:21:35;;;;;;;7.70;3.30;;;0.90;82.80;;;;;;5025650;28;20045;-62
2023/03/12 06:24:08;;;;;;;7.55;3.55;;;0.90;82.60;;;;;;5009446;28;20053;-63
2023/03/12 06:26:46;;;;;;;7.32;3.65;;;0.90;82.90;;;;;;5009661;28;20049;-65
2023/03/12 06:29:19;;;;;;;6.15;3.28;;;0.80;83.10;;;;;;5026858;28;20054;-65
2023/03/12 06:31:52;;;;;;;5.75;3.15;;;0.80;83.00;;;;;;5025156;28;20060;-70
2023/03/12 06:34:27;;;;;;;6.53;3.30;;;0.90;83.00;;;;;;5025743;28;20041;-71
2023/03/12 06:37:00;;;;;;;7.90;3.67;;;0.80;83.20;;;;;;5026680;28;20044;-72
2023/03/12 06:39:34;;;;;;;6.72;3.33;;;0.90;83.10;;;;;;5023303;28;20053;-71
2023/03/12 06:42:08;;;;;;;6.80;3.60;;;0.90;83.20;;;;;;5025788;28;20041;-71
2023/03/12 06:44:41;;;;;;;6.40;3.17;;;0.90;82.80;;;;;;5026851;28;20095;-71
2023/03/12 06:47:14;;;;;;;7.68;3.38;;;1.00;83.20;;;;;;5025554;28;20053;-70
2023/03/12 06:49:55;;;;;;;9.32;3.80;;;1.00;83.10;;;;;;5022960;28;20049;-71
2023/03/12 06:52:29;;;;;;;6.03;3.10;;;1.00;82.80;;;;;;5025645;28;20117;-64
2023/03/12 06:55:02;;;;;;;5.95;2.85;;;1.00;82.60;;;;;;5028292;28;20937;-65
2023/03/12 06:57:35;;;;;;;6.45;3.38;;;1.00;82.70;;;;;;5026724;28;20064;-60
2023/03/12 07:00:10;;;;;;;7.35;3.70;;;1.00;82.60;;;;;;5025931;28;20591;-61
2023/03/12 07:02:43;;;;;;;9.95;3.80;;;1.10;82.70;;;;;;5025939;28;20053;-62
2023/03/12 07:05:18;;;;;;;8.77;4.10;;;1.10;82.80;;;;;;5026082;28;20515;-62
2023/03/12 07:07:51;;;;;;;9.55;2.95;;;1.20;82.70;;;;;;5025724;28;20046;-66
2023/03/12 07:10:26;;;;;;;7.90;3.28;;;1.20;82.70;;;;;;5025750;28;20077;-66
2023/03/12 07:13:00;;;;;;;6.65;3.47;;;1.20;82.60;;;;;;5026062;28;20562;-65
2023/03/12 07:15:34;;;;;;;7.53;3.58;;;1.20;82.50;;;;;;5026694;28;20042;-65
2023/03/12 07:18:09;;;;;;;6.43;3.17;;;1.20;82.10;;;;;;5024989;28;20664;-66
2023/03/12 07:20:46;;;;;;;7.65;3.40;;;1.20;82.30;;;;;;5025580;28;20045;-64
2023/03/12 07:23:19;;;;;;;5.95;3.35;;;1.30;82.80;;;;;;5025121;28;20558;-65
2023/03/12 07:25:54;;;;;;;7.45;3.38;;;1.30;82.70;;;;;;5023846;28;20128;-65
2023/03/12 07:28:27;;;;;;;7.15;3.17;;;1.50;82.60;;;;;;5025892;28;20064;-66
2023/03/12 07:31:01;;;;;;;5.60;2.97;;;1.60;82.20;;;;;;5026048;28;20564;-65
2023/03/12 07:33:34;;;;;;;6.03;3.17;;;1.60;82.10;;;;;;5026715;28;20052;-65
2023/03/12 07:36:09;;;;;;;5.97;3.13;;;1.70;82.00;;;;;;5022355;28;20686;-65
2023/03/12 07:38:42;;;;;;;6.40;2.67;;;1.70;81.80;;;;;;5024039;28;20049;-65
2023/03/12 07:41:15;;;;;;;6.25;2.67;;;1.70;81.90;;;;;;5025700;28;20077;-61
2023/03/12 07:43:48;;;;;;;7.25;3.00;;;1.90;81.70;;;;;;5023557;28;20577;-62
2023/03/12 07:46:21;;;;;;;5.90;3.22;;;1.90;81.60;;;;;;5026472;28;20041;-62
2023/03/12 07:48:54;;;;;;;7.85;2.80;;;2.00;81.40;;;;;;5024966;28;20060;-62
2023/03/12 07:51:35;;;;;;;7.28;3.03;;;2.00;81.50;;;;;;5025350;28;20140;-62
2023/03/12 07:54:09;;;;;;;5.85;3.10;;;2.10;81.60;;;;;;5025210;28;20045;-61
2023/03/12 07:56:42;;;;;;;6.30;2.83;;;2.10;81.30;;;;;;5025403;28;20049;-61
2023/03/12 07:59:15;;;;;;;6.80;3.00;;;2.10;81.20;;;;;;5025613;28;20049;-62
2023/03/12 08:01:48;;;;;;;5.43;2.75;;;2.10;81.10;;;;;;5023751;28;20080;-63
2023/03/12 08:04:22;;;;;;;6.05;2.97;;;2.20;81.10;;;;;;5026078;28;20045;-63
2023/03/12 08:06:57;;;;;;;6.53;2.55;;;2.30;81.00;;;;;;5025035;28;20495;-63
2023/03/12 08:09:31;;;;;;;8.07;3.00;;;2.40;80.90;;;;;;5025672;28;20148;-61
2023/03/12 08:12:05;;;;;;;5.25;2.47;;;2.40;80.90;;;;;;5023416;28;20049;-65
2023/03/12 08:14:38;;;;;;;6.55;2.90;;;2.40;80.70;;;;;;5023012;28;20053;-65
2023/03/12 08:17:12;;;;;;;5.95;2.92;;;2.40;80.60;;;;;;5024712;28;20516;-64
2023/03/12 08:19:45;;;;;;;6.65;3.00;;;2.50;80.60;;;;;;5025311;28;20045;-64
2023/03/12 08:22:20;;;;;;;10.00;3.15;;;2.40;80.50;;;;;;5025345;28;20041;-65
2023/03/12 08:24:53;;;;;;;5.63;3.35;;;2.40;80.80;;;;;;5024830;28;20874;-65
2023/03/12 08:27:26;;;;;;;8.43;4.03;;;2.30;81.00;;;;;;5024842;28;20042;-67
2023/03/12 08:29:59;;;;;;;7.07;3.88;;;2.30;81.10;;;;;;5025084;28;20076;-61
2023/03/12 08:32:33;;;;;;;8.07;3.50;;;2.30;81.40;;;;;;5024056;28;20132;-62
2023/03/12 08:35:09;;;;;;;6.80;3.25;;;2.40;81.40;;;;;;5023705;28;20072;-62
2023/03/12 08:37:44;;;;;;;5.30;2.75;;;2.40;81.40;;;;;;5023576;28;20056;-61
2023/03/12 08:40:17;;;;;;;8.63;3.67;;;2.40;81.30;;;;;;5025176;28;20132;-63
2023/03/12 08:42:51;;;;;;;7.65;3.53;;;2.40;81.20;;;;;;5024967;28;20041;-65
2023/03/12 08:45:24;;;;;;;8.65;3.63;;;2.40;81.20;;;;;;5028894;28;20107;-65
2023/03/12 08:47:57;;;;;;;8.45;3.40;;;2.40;80.90;;;;;;5027484;28;20051;-69
2023/03/12 08:50:44;;;;;;;6.90;3.22;;;2.40;81.00;;;;;;5005931;28;20045;-63
2023/03/12 08:53:19;;;;;;;5.80;2.90;;;2.50;81.00;;;;;;5007831;28;20062;-63
2023/03/12 08:55:45;;;;;;;8.55;3.25;;;2.50;80.90;;;;;;5005556;28;20046;-65
2023/03/12 08:58:20;;;;;;;7.05;3.05;;;2.50;80.80;;;;;;5007360;28;20489;-64
2023/03/12 09:00:55;;;;;;;7.78;3.65;;;2.50;80.80;;;;;;5007873;28;20049;-65
2023/03/12 09:03:28;;;;;;;6.65;3.35;;;2.60;80.80;;;;;;5006754;28;20066;-65
2023/03/12 09:06:08;;;;;;;8.27;3.78;;;2.60;81.00;;;;;;5006512;28;20041;-69
2023/03/12 09:08:44;;;;;;;9.27;4.20;;;2.70;81.20;;;;;;5006253;28;20068;-71
2023/03/12 09:11:18;;;;;;;7.25;3.97;;;2.70;81.20;;;;;;5008141;28;20506;-65
2023/03/12 09:13:52;;;;;;;8.27;3.95;;;2.70;81.30;;;;;;5007675;28;20046;-67
2023/03/12 09:16:25;;;;;;;8.27;4.00;;;2.70;81.30;;;;;;5005869;28;20054;-60
2023/03/12 09:18:58;;;;;;;8.18;3.97;;;2.80;81.40;;;;;;5005535;28;20096;-60
2023/03/12 09:21:31;;;;;;;6.85;3.80;;;2.80;81.40;;;;;;5006613;28;20080;-70
2023/03/12 09:24:06;;;;;;;8.18;4.38;;;2.80;81.50;;;;;;5007612;28;20042;-71
2023/03/12 09:26:39;;;;;;;8.63;4.22;;;2.80;81.60;;;;;;5006629;28;20061;-65
2023/03/12 09:29:12;;;;;;;8.20;3.80;;;2.80;81.70;;;;;;5006483;28;20121;-66
2023/03/12 09:31:45;;;;;;;6.43;3.10;;;2.90;81.80;;;;;;5003253;28;20499;-61
2023/03/12 09:34:18;;;;;;;8.48;3.75;;;2.90;81.90;;;;;;5004598;28;20141;-61
2023/03/12 09:36:51;;;;;;;6.38;3.25;;;2.90;82.20;;;;;;5003920;28;20041;-61
2023/03/12 09:39:26;;;;;;;7.20;3.38;;;2.90;82.30;;;;;;5006084;28;20050;-61
2023/03/12 09:41:59;;;;;;;8.27;2.90;;;2.90;82.80;;;;;;5006172;28;20053;-61
2023/03/12 09:44:36;;;;;;;7.00;3.05;;;2.80;82.20;;;;;;5005968;28;20567;-62
2023/03/12 09:47:15;;;;;;;5.18;2.85;;;2.70;82.20;;;;;;5005595;28;20654;-62
2023/03/12 09:49:52;;;;;;;6.07;3.10;;;2.80;82.90;;;;;;5006544;28;20124;-61
2023/03/12 09:52:29;;;;;;;6.45;2.92;;;2.80;82.70;;;;;;5006159;28;20425;-71
2023/03/12 09:55:11;;;;;;;5.93;2.78;;;2.80;82.70;;;;;;5005944;28;20664;-71
2023/03/12 09:57:46;;;;;;;9.13;3.70;;;2.90;83.00;;;;;;5004817;28;20061;-71
2023/03/12 10:00:22;;;;;;;8.18;3.70;;;2.90;83.20;;;;;;5007871;28;20584;-65
2023/03/12 10:03:10;;;;;;;6.25;3.13;;;3.00;82.80;;;;;;5010528;28;20060;-66
2023/03/12 10:05:47;;;;;;;8.32;3.03;;;3.00;83.30;;;;;;5005013;28;20358;-62
2023/03/12 10:08:29;;;;;;;5.88;3.08;;;3.00;83.20;;;;;;5007381;28;20097;-64
2023/03/12 10:11:17;;;;;;;6.25;3.00;;;3.00;83.10;;;;;;5004813;28;20050;-63
2023/03/12 10:14:05;;;;;;;8.02;3.17;;;3.00;83.00;;;;;;5006257;28;20925;-62
2023/03/12 10:17:06;;;;;;;8.07;3.10;;;3.10;83.00;;;;;;5006985;28;20140;-66
2023/03/12 10:20:13;;;;;;;5.78;2.97;;;3.10;82.90;;;;;;5005321;28;20053;-66
2023/03/12 10:22:55;;;;;;;6.20;2.95;;;3.20;83.10;;;;;;5004557;28;20050;-66
2023/03/12 10:25:35;;;;;;;7.22;3.38;;;3.20;83.20;;;;;;5006823;28;20136;-62
2023/03/12 10:28:16;;;;;;;6.45;2.75;;;3.20;83.40;;;;;;5006201;28;20057;-61
2023/03/12 10:30:54;;;;;;;6.70;3.08;;;3.20;83.60;;;;;;4999030;28;20397;-66
2023/03/12 10:33:39;;;;;;;8.30;2.78;;;3.20;83.90;;;;;;5017567;28;20049;-64
2023/03/12 10:36:17;;;;;;;6.43;3.00;;;3.20;84.10;;;;;;5007223;28;20092;-70
2023/03/12 10:38:51;;;;;;;6.60;2.92;;;3.20;84.50;;;;;;5006477;28;20056;-70
2023/03/12 10:41:28;;;;;;;7.53;3.10;;;3.20;84.50;;;;;;5006608;28;20052;-70
2023/03/12 10:44:07;;;;;;;6.53;2.92;;;3.20;84.70;;;;;;5002930;28;20108;-69
2023/03/12 10:47:01;;;;;;;7.45;3.50;;;3.20;84.80;;;;;;5007176;28;20088;-61
2023/03/12 10:49:36;;;;;;;8.88;4.00;;;3.20;85.00;;;;;;5016975;28;20055;-61
2023/03/12 10:52:18;;;;;;;6.57;3.67;;;3.30;85.20;;;;;;5026816;28;20460;-65
2023/03/12 10:54:53;;;;;;;6.13;3.40;;;3.30;85.40;;;;;;5024914;28;20471;-66
2023/03/12 10:57:39;;;;;;;6.40;3.15;;;3.30;85.50;;;;;;5026078;28;20049;-61
2023/03/12 11:00:20;;;;;;;8.40;3.75;;;3.30;85.70;;;;;;5010931;28;20061;-62
2023/03/12 11:02:59;;;;;;;8.05;3.40;;;3.40;85.70;;;;;;5025745;28;20045;-63
2023/03/12 11:05:35;;;;;;;6.47;2.80;;;3.40;85.90;;;;;;5024438;28;20136;-62
2023/03/12 11:08:22;;;;;;;6.15;3.10;;;3.40;85.90;;;;;;5025797;28;20077;-61
2023/03/12 11:10:57;;;;;;;5.57;2.83;;;3.40;86.20;;;;;;5025586;28;20648;-61
2023/03/12 11:13:33;;;;;;;5.18;2.60;;;3.40;86.70;;;;;;5025506;28;20049;-62
2023/03/12 11:19:20;;;;;;;6.78;2.83;;;3.40;86.50;;;;;;4808152;27;8206033;-62
2023/03/12 11:21:59;;;;;;;7.00;2.85;;;3.40;86.90;;;;;;5078351;28;20090;-62
2023/03/12 11:24:32;;;;;;;7.03;3.08;;;3.40;87.20;;;;;;5063305;28;20111;-61
2023/03/12 11:27:13;;;;;;;6.75;2.97;;;3.50;87.20;;;;;;5064873;28;20055;-62
2023/03/12 11:29:50;;;;;;;5.22;2.83;;;3.70;87.00;;;;;;5067852;28;20153;-62
2023/03/12 11:32:29;;;;;;;8.85;3.55;;;3.70;87.40;;;;;;5086486;28;20052;-61
2023/03/12 11:35:09;;;;;;;9.40;3.17;;;3.80;87.50;;;;;;5096238;28;20558;-62
2023/03/12 11:37:54;;;;;;;8.85;3.28;;;3.80;87.40;;;;;;5095608;28;20044;-61
2023/03/12 11:40:46;;;;;;;10.13;4.00;;;3.80;87.50;;;;;;5099022;28;20052;-63
2023/03/12 11:43:35;;;;;;;6.65;3.50;;;3.80;87.60;;;;;;5091212;28;20044;-61
2023/03/12 11:46:21;;;;;;;8.85;3.10;;;3.80;87.50;;;;;;5095821;28;20052;-62
2023/03/12 11:49:08;;;;;;;6.55;3.25;;;3.80;87.50;;;;;;5097730;28;20071;-62
2023/03/12 11:51:52;;;;;;;5.95;3.30;;;3.80;87.60;;;;;;5098749;28;20040;-62
2023/03/12 11:54:37;;;;;;;6.47;2.97;;;3.90;87.50;;;;;;5097592;28;20055;-61
2023/03/12 11:57:17;;;;;;;8.65;3.50;;;3.90;86.90;;;;;;5086604;28;20571;-62
2023/03/12 12:00:07;;;;;;;7.85;3.72;;;3.90;88.00;;;;;;5115393;27;20070;-62
2023/03/12 12:03:25;;;;;;;7.80;3.30;;;4.00;88.00;;;;;;5114837;28;20050;-62
2023/03/12 12:06:02;;;;;;;8.18;3.75;;;4.00;88.00;;;;;;5078263;28;20520;-71
2023/03/12 12:08:51;;;;;;;7.32;3.72;;;4.00;88.20;;;;;;5092978;28;20047;-72
2023/03/12 12:11:34;;;;;;;6.72;3.42;;;4.00;87.90;;;;;;5089329;28;20056;-61
2023/03/12 12:14:19;;;;;;;6.50;3.60;;;4.10;88.50;;;;;;5099115;28;20139;-61
2023/03/12 12:17:05;;;;;;;6.28;3.58;;;4.10;88.50;;;;;;5082074;28;20071;-70
2023/03/12 12:20:00;;;;;;;6.47;3.80;;;4.10;88.40;;;;;;5091662;28;20044;-70
2023/03/12 12:22:42;;;;;;;7.93;3.80;;;4.10;88.50;;;;;;5097300;28;20127;-70
2023/03/12 12:25:28;;;;;;;6.05;3.63;;;4.10;88.60;;;;;;5104241;28;20040;-64
2023/03/12 12:28:28;;;;;;;9.65;3.80;;;4.10;88.60;;;;;;5089979;28;20372;-64
2023/03/12 12:31:22;;;;;;;8.07;3.60;;;4.10;88.90;;;;;;5090597;28;20051;-60
2023/03/12 12:34:27;;;;;;;7.43;3.70;;;4.10;88.80;;;;;;5081068;28;20895;-60
2023/03/12 12:37:20;;;;;;;7.50;3.38;;;4.20;88.60;;;;;;5089753;28;20080;-61
2023/03/12 12:40:07;;;;;;;7.68;3.28;;;4.20;88.50;;;;;;5089362;28;20052;-61
2023/03/12 12:43:04;;;;;;;7.05;3.83;;;4.20;88.70;;;;;;5103231;28;20040;-61
2023/03/12 12:45:41;;;;;;;6.63;3.28;;;4.20;88.80;;;;;;5088644;28;20043;-61
2023/03/12 12:48:18;;;;;;;6.35;3.22;;;4.20;88.90;;;;;;5099290;28;20040;-62
2023/03/12 12:50:53;;;;;;;8.00;3.97;;;4.30;88.70;;;;;;5100887;28;20051;-61
2023/03/12 12:53:32;;;;;;;6.03;3.28;;;4.30;88.80;;;;;;5102039;28;20043;-61
2023/03/12 12:56:14;;;;;;;6.30;3.13;;;4.30;88.80;;;;;;5086537;28;20051;-62
2023/03/12 12:59:06;;;;;;;6.07;3.10;;;4.30;88.80;;;;;;5093864;28;20068;-61
2023/03/12 13:01:40;;;;;;;5.93;3.40;;;4.40;88.70;;;;;;5075652;28;20041;-61
2023/03/12 13:04:13;;;;;;;7.68;4.55;;;4.40;88.60;;;;;;5076399;28;20052;-68
2023/03/12 13:07:00;;;;;;;9.43;5.25;;;4.40;88.90;;;;;;5077292;28;20514;-61
2023/03/12 13:09:39;;;;;;;11.13;6.45;;;4.40;89.10;;;;;;5076606;28;20491;-61
2023/03/12 13:12:21;;;;;;;11.45;6.05;;;4.50;89.10;;;;;;5072150;28;20048;-62
2023/03/12 13:14:57;;;;;;;9.40;5.25;;;4.50;89.40;;;;;;5094395;28;20043;-62
2023/03/12 13:17:34;;;;;;;9.05;5.22;;;4.60;89.30;;;;;;5089206;27;20333;-61
2023/03/12 13:20:19;;;;;;;10.05;5.00;;;4.60;89.30;;;;;;5077743;28;20063;-62
2023/03/12 13:23:21;;;;;;;11.70;5.18;;;4.60;89.40;;;;;;5080109;28;20059;-64
2023/03/12 13:26:00;;;;;;;9.55;5.28;;;4.70;89.30;;;;;;5092235;28;20047;-64
2023/03/12 13:28:39;;;;;;;7.72;4.60;;;4.70;89.50;;;;;;5093132;28;20040;-64
2023/03/12 13:31:38;;;;;;;9.75;5.45;;;4.80;89.70;;;;;;5072695;28;20048;-64
2023/03/12 13:34:51;;;;;;;10.65;5.53;;;4.80;89.60;;;;;;5066777;28;20071;-63
2023/03/12 13:37:58;;;;;;;8.30;5.00;;;4.80;89.70;;;;;;5093195;28;20451;-61
2023/03/12 13:41:00;;;;;;;7.85;5.10;;;4.80;89.60;;;;;;5098302;28;20044;-60
2023/03/12 13:43:49;;;;;;;10.30;5.20;;;4.80;89.80;;;;;;5098898;28;20031;-59
2023/03/12 13:46:45;;;;;;;8.50;5.13;;;4.80;89.70;;;;;;5099513;28;20803;-64
2023/03/12 13:49:19;;;;;;;8.98;5.22;;;4.90;89.60;;;;;;5096330;28;20054;-64
2023/03/12 13:52:00;;;;;;;8.02;5.65;;;4.90;89.60;;;;;;5095677;28;20044;-66
2023/03/12 13:54:40;;;;;;;8.93;5.35;;;5.00;89.90;;;;;;5100398;28;20182;-64